createdAt,value
2022-08-09T00:00:59.808Z,100549.84
2022-08-09T00:04:00.508Z,100545.38
2022-08-09T00:06:23.316Z,100533.22
2022-08-09T00:08:56.989Z,100517.84
2022-08-09T00:11:54.977Z,100499.78
2022-08-09T00:14:21.725Z,100489.78
2022-08-09T00:16:57.078Z,100474.44
2022-08-09T00:19:27.647Z,100467.81
2022-08-09T00:21:57.111Z,100465.53
2022-08-09T00:24:27.217Z,100481.84
2022-08-09T00:26:57.428Z,100480.28
2022-08-09T00:29:39.101Z,100474.59
2022-08-09T00:32:27.227Z,100475.06
2022-08-09T00:34:58.767Z,100467.69
2022-08-09T00:37:32.315Z,100454.25
2022-08-09T00:40:13.928Z,100453.72
2022-08-09T00:44:25.531Z,100456.66
2022-08-09T00:45:35.190Z,100459.66
2022-08-09T00:48:04.422Z,100452.19
2022-08-09T00:50:37.822Z,100443.16
2022-08-09T00:53:10.582Z,100437.41
2022-08-09T00:56:05.304Z,100438.25
2022-08-09T00:58:31.619Z,100448.28
2022-08-09T01:01:00.635Z,100460.53
2022-08-09T01:03:46.270Z,100457.06
2022-08-09T01:06:22.278Z,100465.41
2022-08-09T01:09:02.906Z,100476.13
2022-08-09T01:11:53.102Z,100482.91
2022-08-09T01:14:29.939Z,100477.66
2022-08-09T01:17:04.414Z,100480.41
2022-08-09T01:19:57.195Z,100478.03
2022-08-09T01:22:55.099Z,100484.81
2022-08-09T01:25:37.431Z,100493.47
2022-08-09T01:28:12.982Z,100488.84
2022-08-09T01:30:51.454Z,100492.66
2022-08-09T01:33:25.918Z,100498.34
2022-08-09T01:36:00.948Z,100494.78
2022-08-09T01:38:33.020Z,100496.94
2022-08-09T01:41:07.492Z,100491.59
2022-08-09T01:43:50.042Z,100496.25
2022-08-09T01:46:25.278Z,100496.47
2022-08-09T01:49:09.711Z,100494.56
2022-08-09T01:51:44.228Z,100489.94
2022-08-09T01:54:15.100Z,100493.16
2022-08-09T01:56:47.165Z,100499.47
2022-08-09T01:59:23.756Z,100487.44
2022-08-09T02:01:59.750Z,100487.91
2022-08-09T02:04:31.090Z,100491.47
2022-08-09T02:07:15.359Z,100494.22
2022-08-09T02:09:59.815Z,100502.41
2022-08-09T02:12:35.315Z,100506.22
2022-08-09T02:15:15.431Z,100516.09
2022-08-09T02:18:01.469Z,100511.13
2022-08-09T02:20:42.096Z,100514.09
2022-08-09T02:23:16.943Z,100508.25
2022-08-09T02:25:52.876Z,100513.16
2022-08-09T02:28:30.698Z,100521.38
2022-08-09T02:31:06.019Z,100511.47
2022-08-09T02:34:07.042Z,100508.97
2022-08-09T02:36:34.649Z,100513.28
2022-08-09T02:39:20.109Z,100523.13
2022-08-09T02:42:00.151Z,100517.66
2022-08-09T02:44:37.453Z,100521.22
2022-08-09T02:47:10.881Z,100524.69
2022-08-09T02:49:44.533Z,100533.72
2022-08-09T02:52:16.334Z,100538.09
2022-08-09T02:54:54.218Z,100533.47
2022-08-09T02:57:25.738Z,100537.06
2022-08-09T03:00:20.469Z,100535.97
2022-08-09T03:03:00.435Z,100538.09
2022-08-09T03:05:34.486Z,100551.44
2022-08-09T03:08:05.835Z,100561.31
2022-08-09T03:10:36.716Z,100558.34
2022-08-09T03:13:08.595Z,100558.09
2022-08-09T03:16:06.686Z,100553.94
2022-08-09T03:18:31.595Z,100553.34
2022-08-09T03:21:03.050Z,100550.84
2022-08-09T03:23:32.116Z,100538.00
2022-08-09T03:26:04.846Z,100541.56
2022-08-09T03:28:36.011Z,100533.34
2022-08-09T03:31:10.440Z,100538.47
2022-08-09T03:33:54.812Z,100543.69
2022-08-09T03:36:27.055Z,100548.13
2022-08-09T03:38:58.066Z,100547.03
2022-08-09T03:41:29.999Z,100540.13
2022-08-09T03:44:15.693Z,100536.22
2022-08-09T03:46:44.295Z,100533.00
2022-08-09T03:49:17.571Z,100535.75
2022-08-09T03:51:58.554Z,100529.09
2022-08-09T03:54:34.593Z,100538.72
2022-08-09T03:57:18.089Z,100532.75
2022-08-09T03:59:55.013Z,100533.09
2022-08-09T04:02:28.545Z,100535.63
2022-08-09T04:05:05.680Z,100549.88
2022-08-09T04:07:52.518Z,100544.41
2022-08-09T04:10:29.049Z,100554.31
2022-08-09T04:13:04.331Z,100553.47
2022-08-09T04:16:18.667Z,100552.84
2022-08-09T04:18:22.031Z,100547.41
2022-08-09T04:20:52.251Z,100539.78
2022-08-09T04:23:24.562Z,100540.63
2022-08-09T04:25:55.822Z,100542.28
2022-08-09T04:28:33.122Z,100547.50
2022-08-09T04:31:08.656Z,100543.84
2022-08-09T04:33:51.930Z,100537.06
2022-08-09T04:36:25.343Z,100541.44
2022-08-09T04:38:54.961Z,100540.84
2022-08-09T04:41:24.401Z,100544.03
2022-08-09T04:44:06.513Z,100541.09
2022-08-09T04:46:59.120Z,100539.53
2022-08-09T04:49:53.264Z,100544.19
2022-08-09T04:52:26.581Z,100539.53
2022-08-09T04:54:56.399Z,100532.06
2022-08-09T04:57:25.710Z,100532.28
2022-08-09T04:59:56.379Z,100533.34
2022-08-09T05:02:27.164Z,100536.34
2022-08-09T05:04:56.906Z,100524.56
2022-08-09T05:07:32.067Z,100520.75
2022-08-09T05:10:01.974Z,100500.53
2022-08-09T05:12:33.010Z,100502.09
2022-08-09T05:15:11.817Z,100513.25
2022-08-09T05:18:50.488Z,100518.59
2022-08-09T05:20:40.885Z,100518.59
2022-08-09T05:23:54.267Z,100515.19
2022-08-09T05:25:59.346Z,100515.75
2022-08-09T05:28:27.875Z,100514.69
2022-08-09T05:30:56.524Z,100510.66
2022-08-09T05:33:32.877Z,100507.06
2022-08-09T05:36:04.134Z,100512.06
2022-08-09T05:38:39.149Z,100519.44
2022-08-09T05:41:12.609Z,100518.38
2022-08-09T05:43:45.262Z,100519.56
2022-08-09T05:46:17.588Z,100510.88
2022-08-09T05:48:48.600Z,100505.50
2022-08-09T05:51:42.573Z,100515.13
2022-08-09T05:54:17.924Z,100519.88
2022-08-09T05:56:54.541Z,100511.19
2022-08-09T05:59:23.896Z,100509.91
2022-08-09T06:01:58.993Z,100504.16
2022-08-09T06:04:34.801Z,100506.72
2022-08-09T06:07:03.876Z,100507.06
2022-08-09T06:09:54.856Z,100502.91
2022-08-09T06:12:22.739Z,100507.28
2022-08-09T06:14:55.056Z,100511.22
2022-08-09T06:17:40.219Z,100508.97
2022-08-09T06:20:10.086Z,100509.53
2022-08-09T06:22:39.490Z,100500.63
2022-08-09T06:25:12.466Z,100510.38
2022-08-09T06:27:51.405Z,100505.75
2022-08-09T06:30:20.473Z,100503.25
2022-08-09T06:33:00.212Z,100500.03
2022-08-09T06:35:56.225Z,100495.38
2022-08-09T06:38:19.181Z,100503.59
2022-08-09T06:40:49.184Z,100505.59
2022-08-09T06:43:23.675Z,100509.28
2022-08-09T06:46:05.868Z,100508.44
2022-08-09T06:48:36.740Z,100505.25
2022-08-09T06:51:12.011Z,100498.34
2022-08-09T06:53:43.275Z,100500.59
2022-08-09T06:56:13.693Z,100494.63
2022-08-09T07:00:50.757Z,100494.38
2022-08-09T07:01:51.963Z,100493.06
2022-08-09T07:04:20.410Z,100504.84
2022-08-09T07:06:53.452Z,100507.94
2022-08-09T07:09:54.955Z,100504.94
2022-08-09T07:12:18.809Z,100508.66
2022-08-09T07:14:51.137Z,100509.00
2022-08-09T07:17:21.717Z,100514.47
2022-08-09T07:19:55.622Z,100506.28
2022-08-09T07:22:34.297Z,100512.09
2022-08-09T07:25:05.480Z,100527.22
2022-08-09T07:27:42.579Z,100527.56
2022-08-09T07:30:14.406Z,100529.22
2022-08-09T07:32:43.628Z,100525.66
2022-08-09T07:35:15.156Z,100525.44
2022-08-09T07:37:46.031Z,100522.44
2022-08-09T07:40:20.514Z,100522.09
2022-08-09T07:42:58.734Z,100528.19
2022-08-09T07:45:39.404Z,100529.00
2022-08-09T07:48:25.544Z,100518.63
2022-08-09T07:51:03.102Z,100517.56
2022-08-09T07:54:05.461Z,100519.13
2022-08-09T07:56:44.887Z,100499.72
2022-08-09T07:59:25.550Z,100504.94
2022-08-09T08:02:04.845Z,100511.84
2022-08-09T08:04:34.307Z,100517.44
2022-08-09T08:07:15.442Z,100531.22
2022-08-09T08:09:55.046Z,100533.81
2022-08-09T08:12:42.505Z,100533.66
2022-08-09T08:15:16.785Z,100532.25
2022-08-09T08:17:53.275Z,100530.44
2022-08-09T08:20:30.472Z,100532.94
2022-08-09T08:23:06.518Z,100531.28
2022-08-09T08:25:46.653Z,100533.03
2022-08-09T08:28:18.273Z,100541.34
2022-08-09T08:31:10.476Z,100546.56
2022-08-09T08:33:53.278Z,100538.13
2022-08-09T08:36:29.681Z,100540.59
2022-08-09T08:39:00.269Z,100538.69
2022-08-09T08:41:50.306Z,100540.75
2022-08-09T08:44:27.053Z,100543.81
2022-08-09T08:47:04.603Z,100540.25
2022-08-09T08:49:48.005Z,100545.72
2022-08-09T08:55:07.995Z,100547.66
2022-08-09T08:57:37.101Z,100540.09
2022-08-09T09:00:16.932Z,100545.41
2022-08-09T09:02:55.604Z,100547.81
2022-08-09T09:05:57.982Z,100547.50
2022-08-09T09:08:30.686Z,100548.44
2022-08-09T09:11:03.809Z,100544.34
2022-08-09T09:13:55.029Z,100543.78
2022-08-09T09:16:31.224Z,100546.75
2022-08-09T09:19:36.870Z,100546.34
2022-08-09T09:22:05.394Z,100540.13
2022-08-09T09:24:39.732Z,100536.72
2022-08-09T09:28:03.271Z,100533.28
2022-08-09T09:30:14.203Z,100532.88
2022-08-09T09:33:02.814Z,100531.38
2022-08-09T09:36:01.075Z,100524.59
2022-08-09T09:38:42.773Z,100525.50
2022-08-09T09:41:11.632Z,100532.25
2022-08-09T09:43:41.200Z,100518.50
2022-08-09T09:46:42.630Z,100507.56
2022-08-09T09:49:13.894Z,100509.91
2022-08-09T09:51:44.105Z,100508.81
2022-08-09T09:54:22.765Z,100506.06
2022-08-09T09:56:53.349Z,100506.06
2022-08-09T09:59:40.498Z,100505.78
2022-08-09T10:02:12.747Z,100503.59
2022-08-09T10:04:41.851Z,100499.44
2022-08-09T10:07:24.944Z,100503.59
2022-08-09T10:09:55.560Z,100502.47
2022-08-09T10:12:31.305Z,100500.28
2022-08-09T10:15:17.102Z,100496.41
2022-08-09T10:17:55.134Z,100503.03
2022-08-09T10:20:32.851Z,100511.00
2022-08-09T10:23:20.367Z,100509.31
2022-08-09T10:26:07.498Z,100500.50
2022-08-09T10:28:41.055Z,100507.09
2022-08-09T10:34:08.782Z,100499.97
2022-08-09T10:36:45.156Z,100500.75
2022-08-09T10:39:19.267Z,100509.59
2022-08-09T10:41:48.595Z,100502.72
2022-08-09T10:44:21.907Z,100509.06
2022-08-09T10:51:44.784Z,100517.31
2022-08-09T10:54:14.992Z,100512.03
2022-08-09T10:56:44.730Z,100514.78
2022-08-09T10:59:55.446Z,100512.81
2022-08-09T11:03:14.569Z,100507.25
2022-08-09T11:05:30.514Z,100514.66
2022-08-09T11:08:47.033Z,100509.72
2022-08-09T11:11:18.875Z,100519.06
2022-08-09T11:13:53.729Z,100512.97
2022-08-09T11:16:41.124Z,100519.78
2022-08-09T11:19:11.230Z,100524.38
2022-08-09T11:22:16.644Z,100521.63
2022-08-09T11:25:08.422Z,100514.75
2022-08-09T11:28:04.791Z,100517.19
2022-08-09T11:30:35.629Z,100510.59
2022-08-09T11:33:06.900Z,100518.34
2022-08-09T11:35:49.136Z,100518.34
2022-08-09T11:38:22.158Z,100518.94
2022-08-09T11:40:53.128Z,100521.41
2022-08-09T11:43:43.104Z,100519.19
2022-08-09T11:46:12.048Z,100513.72
2022-08-09T11:48:52.295Z,100498.88
2022-08-09T11:53:03.269Z,100513.44
2022-08-09T11:54:21.654Z,100504.66
2022-08-09T11:58:00.703Z,100506.34
2022-08-09T12:00:27.395Z,100510.16
2022-08-09T12:02:57.581Z,100506.03
2022-08-09T12:05:42.333Z,100499.16
2022-08-09T12:08:21.726Z,100510.72
2022-08-09T12:10:53.923Z,100504.13
2022-08-09T12:14:10.757Z,100507.75
2022-08-09T12:16:38.217Z,100502.25
2022-08-09T12:19:11.393Z,100496.44
2022-08-09T12:21:48.417Z,100498.66
2022-08-09T12:24:23.703Z,100508.03
2022-08-09T12:28:58.990Z,100501.47
2022-08-09T12:29:58.645Z,100503.94
2022-08-09T12:32:36.016Z,100502.81
2022-08-09T12:35:12.446Z,100499.28
2022-08-09T12:37:51.432Z,100499.25
2022-08-09T12:40:24.819Z,100502.28
2022-08-09T12:42:54.202Z,100499.28
2022-08-09T12:45:33.670Z,100500.94
2022-08-09T12:48:27.848Z,100499.81
2022-08-09T12:51:04.018Z,100496.78
2022-08-09T12:53:38.369Z,100493.72
2022-08-09T12:56:39.329Z,100502.25
2022-08-09T12:59:11.926Z,100497.28
2022-08-09T13:01:49.160Z,100494.81
2022-08-09T13:04:36.471Z,100486.25
2022-08-09T13:07:14.793Z,100491.19
2022-08-09T13:09:52.850Z,100491.19
2022-08-09T13:12:29.503Z,100492.81
2022-08-09T13:15:07.301Z,100485.66
2022-08-09T13:18:02.860Z,100487.84
2022-08-09T13:21:20.557Z,100484.03
2022-08-09T13:24:07.123Z,100487.34
2022-08-09T13:26:36.770Z,100478.25
2022-08-09T13:29:13.014Z,100486.25
2022-08-09T13:32:15.826Z,100479.06
2022-08-09T13:34:46.805Z,100483.75
2022-08-09T13:37:50.987Z,100483.75
2022-08-09T13:41:55.513Z,100477.13
2022-08-09T13:42:57.106Z,100480.16
2022-08-09T13:45:32.278Z,100484.31
2022-08-09T13:48:14.662Z,100473.28
2022-08-09T13:50:44.243Z,100482.91
2022-08-09T13:53:18.088Z,100472.47
2022-08-09T13:55:47.842Z,100471.91
2022-08-09T13:58:16.914Z,100477.41
2022-08-09T14:00:50.639Z,100481.50
2022-08-09T14:04:04.992Z,100480.88
2022-08-09T14:06:19.471Z,100473.97
2022-08-09T14:08:56.447Z,100471.75
2022-08-09T14:11:26.628Z,100472.03
2022-08-09T14:14:24.515Z,100473.69
2022-08-09T14:16:43.913Z,100475.31
2022-08-09T14:19:12.761Z,100481.91
2022-08-09T14:21:41.433Z,100482.41
2022-08-09T14:24:18.579Z,100486.84
2022-08-09T14:26:51.915Z,100484.88
2022-08-09T14:29:25.450Z,100479.66
2022-08-09T14:32:11.415Z,100485.44
2022-08-09T14:34:42.024Z,100482.69
2022-08-09T14:37:11.103Z,100484.34
2022-08-09T14:39:46.953Z,100492.06
2022-08-09T14:42:39.374Z,100494.25
2022-08-09T14:46:39.340Z,100494.75
2022-08-09T14:48:02.429Z,100490.56
2022-08-09T14:50:34.626Z,100496.59
2022-08-09T14:53:11.521Z,100508.38
2022-08-09T14:55:50.180Z,100507.00
2022-08-09T14:58:20.092Z,100506.47
2022-08-09T15:00:50.929Z,100500.41
2022-08-09T15:03:21.001Z,100515.78
2022-08-09T15:05:53.728Z,100509.19
2022-08-09T15:08:30.425Z,100513.84
2022-08-09T15:11:07.130Z,100510.22
2022-08-09T15:13:48.415Z,100504.97
2022-08-09T15:16:30.340Z,100508.56
2022-08-09T15:19:05.663Z,100498.63
2022-08-09T15:22:00.896Z,100496.97
2022-08-09T15:24:29.926Z,100500.72
2022-08-09T15:26:59.872Z,100496.41
2022-08-09T15:30:57.554Z,100485.13
2022-08-09T15:32:29.389Z,100496.72
2022-08-09T15:35:01.113Z,100500.00
2022-08-09T15:37:57.387Z,100489.53
2022-08-09T15:40:31.994Z,100485.09
2022-08-09T15:43:03.541Z,100489.50
2022-08-09T15:45:51.981Z,100486.44
2022-08-09T15:48:28.378Z,100485.03
2022-08-09T15:50:58.124Z,100489.13
2022-08-09T15:54:05.836Z,100490.50
2022-08-09T15:56:29.185Z,100489.13
2022-08-09T15:59:01.013Z,100491.31
2022-08-09T16:01:31.423Z,100485.25
2022-08-09T16:04:04.265Z,100485.53
2022-08-09T16:06:37.501Z,100491.31
2022-08-09T16:09:07.566Z,100483.59
2022-08-09T16:11:36.028Z,100488.28
2022-08-09T16:14:08.005Z,100486.91
2022-08-09T16:16:37.721Z,100496.25
2022-08-09T16:19:07.759Z,100502.84
2022-08-09T16:21:36.862Z,100501.44
2022-08-09T16:24:05.854Z,100496.16
2022-08-09T16:26:48.998Z,100507.16
2022-08-09T16:29:20.136Z,100514.31
2022-08-09T16:32:19.899Z,100514.31
2022-08-09T16:34:55.281Z,100527.19
2022-08-09T16:37:53.735Z,100518.91
2022-08-09T16:40:20.607Z,100519.72
2022-08-09T16:42:58.629Z,100520.50
2022-08-09T16:45:29.009Z,100517.97
2022-08-09T16:48:38.242Z,100519.31
2022-08-09T16:50:58.796Z,100528.97
2022-08-09T16:53:32.540Z,100528.13
2022-08-09T16:56:09.120Z,100527.84
2022-08-09T16:58:49.834Z,100531.19
2022-08-09T17:01:23.770Z,100527.28
2022-08-09T17:03:53.670Z,100527.84
2022-08-09T17:06:31.385Z,100531.13
2022-08-09T17:09:17.784Z,100531.09
2022-08-09T17:11:52.439Z,100533.00
2022-08-09T17:14:26.602Z,100539.84
2022-08-09T17:17:01.213Z,100550.81
2022-08-09T17:20:04.947Z,100539.00
2022-08-09T17:22:25.169Z,100547.25
2022-08-09T17:25:03.652Z,100550.50
2022-08-09T17:27:33.239Z,100549.69
2022-08-09T17:30:04.706Z,100543.28
2022-08-09T17:32:38.629Z,100548.47
2022-08-09T17:35:12.290Z,100543.50
2022-08-09T17:38:02.553Z,100546.75
2022-08-09T17:40:32.628Z,100549.97
2022-08-09T17:43:33.019Z,100551.06
2022-08-09T17:46:04.145Z,100556.22
2022-08-09T17:48:39.399Z,100549.00
2022-08-09T17:51:18.779Z,100545.94
2022-08-09T17:53:53.515Z,100549.78
2022-08-09T17:56:27.966Z,100547.88
2022-08-09T17:59:02.945Z,100551.38
2022-08-09T18:02:03.219Z,100542.56
2022-08-09T18:04:22.147Z,100545.84
2022-08-09T18:06:55.074Z,100545.25
2022-08-09T18:09:41.202Z,100542.19
2022-08-09T18:12:17.291Z,100541.59
2022-08-09T18:14:53.364Z,100540.78
2022-08-09T18:17:27.612Z,100536.88
2022-08-09T18:20:59.346Z,100546.22
2022-08-09T18:23:04.893Z,100540.13
2022-08-09T18:25:50.809Z,100535.72
2022-08-09T18:30:39.731Z,100551.88
2022-08-09T18:31:11.550Z,100549.41
2022-08-09T18:33:40.665Z,100547.38
2022-08-09T18:36:14.159Z,100549.56
2022-08-09T18:39:00.690Z,100552.31
2022-08-09T18:41:34.303Z,100559.13
2022-08-09T18:44:13.159Z,100556.66
2022-08-09T18:46:45.945Z,100554.91
2022-08-09T18:49:21.463Z,100553.25
2022-08-09T18:51:57.642Z,100555.75
2022-08-09T18:54:29.558Z,100553.25
2022-08-09T18:57:05.360Z,100552.66
2022-08-09T18:59:37.488Z,100550.19
2022-08-09T19:02:18.532Z,100547.69
2022-08-09T19:05:03.998Z,100546.84
2022-08-09T19:07:38.687Z,100550.09
2022-08-09T19:10:14.197Z,100545.09
2022-08-09T19:12:52.930Z,100550.81
2022-08-09T19:15:27.783Z,100550.50
2022-08-09T19:17:58.687Z,100548.84
2022-08-09T19:20:33.965Z,100549.34
2022-08-09T19:23:05.408Z,100552.31
2022-08-09T19:26:01.079Z,100552.59
2022-08-09T19:28:28.675Z,100552.81
2022-08-09T19:30:57.642Z,100555.22
2022-08-09T19:33:26.393Z,100550.81
2022-08-09T19:35:57.444Z,100549.41
2022-08-09T19:38:29.059Z,100549.66
2022-08-09T19:40:59.894Z,100551.00
2022-08-09T19:44:00.409Z,100547.44
2022-08-09T19:46:34.280Z,100547.91
2022-08-09T19:50:08.671Z,100544.34
2022-08-09T19:51:55.489Z,100545.66
2022-08-09T19:54:27.217Z,100545.94
2022-08-09T19:56:57.185Z,100545.34
2022-08-09T19:59:57.416Z,100535.72
2022-08-09T20:04:17.987Z,100537.03
2022-08-09T20:05:10.275Z,100538.34
2022-08-09T20:07:57.024Z,100538.84
2022-08-09T20:10:34.130Z,100546.50
2022-08-09T20:13:05.098Z,100543.16
2022-08-09T20:16:37.863Z,100532.69
2022-08-09T20:18:27.962Z,100546.91
2022-08-09T20:20:57.949Z,100538.09
2022-08-09T20:23:39.323Z,100535.59
2022-08-09T20:26:13.033Z,100536.94
2022-08-09T20:28:48.416Z,100540.50
2022-08-09T20:31:18.496Z,100541.59
2022-08-09T20:33:52.456Z,100535.03
2022-08-09T20:36:27.271Z,100542.66
2022-08-09T20:39:28.330Z,100551.72
2022-08-09T20:41:48.925Z,100548.97
2022-08-09T20:44:26.447Z,100550.88
2022-08-09T20:46:55.645Z,100550.31
2022-08-09T20:49:27.583Z,100544.84
2022-08-09T20:51:57.916Z,100551.38
2022-08-09T20:54:29.197Z,100547.22
2022-08-09T20:56:59.990Z,100554.84
2022-08-09T21:00:19.844Z,100554.84
2022-08-09T21:02:18.569Z,100558.09
2022-08-09T21:05:50.982Z,100551.78
2022-08-09T21:07:40.257Z,100550.88
2022-08-09T21:10:12.050Z,100546.56
2022-08-09T21:15:34.161Z,100548.47
2022-08-09T21:18:21.319Z,100544.53
2022-08-09T21:20:54.456Z,100551.69
2022-08-09T21:23:36.033Z,100552.53
2022-08-09T21:26:15.686Z,100548.97
2022-08-09T21:28:55.434Z,100550.63
2022-08-09T21:31:48.592Z,100553.59
2022-08-09T21:34:21.035Z,100548.13
2022-08-09T21:36:57.970Z,100550.00
2022-08-09T21:39:28.155Z,100543.94
2022-08-09T21:42:10.893Z,100546.91
2022-08-09T21:44:42.795Z,100545.72
2022-08-09T21:47:17.666Z,100544.69
2022-08-09T21:49:48.243Z,100542.16
2022-08-09T21:52:20.524Z,100543.25
2022-08-09T21:55:03.181Z,100540.75
2022-08-09T21:57:38.921Z,100533.38
2022-08-09T22:00:32.443Z,100537.66
2022-08-09T22:03:04.925Z,100522.78
2022-08-09T22:05:36.912Z,100524.47
2022-08-09T22:08:13.023Z,100526.13
2022-08-09T22:11:49.842Z,100522.31
2022-08-09T22:13:36.758Z,100521.75
2022-08-09T22:16:10.177Z,100521.41
2022-08-09T22:18:53.683Z,100521.88
2022-08-09T22:21:44.651Z,100533.66
2022-08-09T22:24:16.562Z,100521.88
2022-08-09T22:26:51.208Z,100523.78
2022-08-09T22:29:25.543Z,100528.41
2022-08-09T22:31:58.963Z,100528.41
2022-08-09T22:34:27.779Z,100530.81
2022-08-09T22:36:57.959Z,100531.06
2022-08-09T22:39:55.781Z,100527.72
2022-08-09T22:42:20.978Z,100533.13
2022-08-09T22:45:00.141Z,100524.31
2022-08-09T22:48:15.096Z,100523.47
2022-08-09T22:50:31.371Z,100528.94
2022-08-09T22:53:03.529Z,100523.13
2022-08-09T22:56:06.366Z,100525.38
2022-08-09T22:58:33.122Z,100522.31
2022-08-09T23:01:03.668Z,100521.97
2022-08-09T23:04:04.598Z,100527.19
2022-08-09T23:06:35.688Z,100522.91
2022-08-09T23:09:07.225Z,100519.97
2022-08-09T23:11:35.969Z,100517.44
2022-08-09T23:14:09.943Z,100516.41
2022-08-09T23:16:39.098Z,100521.34
2022-08-09T23:19:08.996Z,100520.31
2022-08-09T23:21:38.722Z,100518.13
2022-08-09T23:24:08.385Z,100520.78
2022-08-09T23:26:37.371Z,100521.28
2022-08-09T23:29:06.696Z,100524.75
2022-08-09T23:31:35.217Z,100522.84
2022-08-09T23:34:04.148Z,100518.19
2022-08-09T23:36:34.910Z,100523.19
2022-08-09T23:39:03.604Z,100528.78
2022-08-09T23:41:32.140Z,100531.28
2022-08-09T23:44:01.848Z,100538.66
2022-08-09T23:46:31.263Z,100545.81
2022-08-09T23:49:01.236Z,100553.16
2022-08-09T23:51:30.089Z,100551.28
2022-08-09T23:54:02.541Z,100549.13
2022-08-09T23:56:52.118Z,100552.34
2022-08-09T23:59:22.090Z,100549.25
